^^

Metar (rayon 200 km actualisée toutes les 30 minutes)






LFBU - Brie/Champniers, France
Distance de la station: SSE 07km
Mise à jour: 19/09/2014 15:30
partiellement nuageux
partiellement nuageux
 Wind from SSE
Vent: SSE 7 km/h
Température: 27°C
Heat Index: 27°C
Point de Rosée: 14°C
Humidité: 45%
Baromètre: 1010 hPa
Nuages: partiellement nuageux
Visibilité: 10 km
2014/09/19 13:30 LFBU 191330Z AUTO 15004KT 090V240 9999 NSC 27/14 Q1010
LFBG - Cognac/Chateaubernard, France
Distance de la station: OSO 35km
Mise à jour: 19/09/2014 15:30
partiellement nuageux
partiellement nuageux
 Wind from SSO
Vent: SSO 9 km/h
Température: 28°C
Heat Index: 27°C
Point de Rosée: 13°C
Humidité: 40%
Baromètre: 1010 hPa
Nuages: partiellement nuageux
Visibilité: 10 km
2014/09/19 13:30 LFBG 191330Z AUTO 21005KT 130V270 9999 NSC 28/13 Q1010
 
LFBL - Limoges/Bellegarde, France
Distance de la station: E 82km
Mise à jour: 19/09/2014 15:30
partiellement nuageux
partiellement nuageux
 Wind from S
Vent: S 11 km/h
Température: 24°C
Point de Rosée: 17°C
Humidité: 65%
Baromètre: 1011 hPa
Nuages: partiellement nuageux
Visibilité: 10 km
Nuages details: Quelques Nuages 914 m
partiellement nuageux 1189 m
2014/09/19 13:30 LFBL 191330Z AUTO 18006KT 100V230 9999 FEW030 SCT039 24/17 Q1011
LFBI - Poitiers/France
Distance de la station: N 93km
Mise à jour: 19/09/2014 15:30
partiellement nuageux
partiellement nuageux
 Wind from SSE
Vent: SSE 9 km/h
Température: 26°C
Point de Rosée: 18°C
Humidité: 61%
Baromètre: 1010 hPa
Nuages: partiellement nuageux
Visibilité: 10 km
2014/09/19 13:30 LFBI 191330Z AUTO 15005KT 100V210 9999 NSC 26/18 Q1010
 
LFBH - La Rochelle/France
Distance de la station: ONO 106km
Mise à jour: 19/09/2014 15:30
partiellement nuageux
partiellement nuageux
 Wind from SSO
Vent: SSO 19 km/h
Température: 27°C
Heat Index: 27°C
Point de Rosée: 14°C
Humidité: 45%
Baromètre: 1009 hPa
Nuages: partiellement nuageux
Visibilité: 10 km
2014/09/19 13:30 LFBH 191330Z AUTO 21010KT 180V240 9999 NSC 27/14 Q1009
LFBE - Bergerac/France
Distance de la station: SSE 107km
Mise à jour: 19/09/2014 15:30
partiellement nuageux
partiellement nuageux
 Wind from NO
Vent: NO 6 km/h
Température: 29°C
Heat Index: 29°C
Point de Rosée: 16°C
Humidité: 45%
Baromètre: 1010 hPa
Nuages: partiellement nuageux
Visibilité: 10 km
2014/09/19 13:30 LFBE 191330Z AUTO 32003KT 210V010 9999 NSC 29/16 Q1010
 
LFBD - Bordeaux/France
Distance de la station: SSO 121km
Mise à jour: 19/09/2014 15:30
partiellement nuageux
partiellement nuageux
 Wind from O
Vent: O 11 km/h
Température: 29°C
Point de Rosée: 13°C
Humidité: 37%
Baromètre: 1009 hPa
Nuages: partiellement nuageux
Visibilité: 10 km
2014/09/19 13:30 LFBD 191330Z AUTO 27006KT 210V310 9999 NSC 29/13 Q1009
LFRI - La Roche-sur-Yon/France
Distance de la station: NO 156km
Mise à jour: 19/09/2014 15:30
partiellement nuageux
partiellement nuageux
 Wind from SSO
Vent: SSO 19 km/h
Température: 26°C
Point de Rosée: 15°C
Humidité: 51%
Baromètre: 1009 hPa
Nuages: partiellement nuageux
Visibilité: 10 km
2014/09/19 13:30 LFRI 191330Z AUTO 20010KT 160V220 9999 NSC 26/15 Q1009
 
LFBC - Cazaux/France
Distance de la station: SO 167km
Mise à jour: 19/09/2014 15:00
partiellement nuageux
partiellement nuageux
 Wind from SO
Vent: SO 19 km/h
Température: 28°C
Heat Index: 28°C
Point de Rosée: 14°C
Humidité: 42%
Baromètre: 1009 hPa
Nuages: partiellement nuageux
Visibilité: 10 km
2014/09/19 13:00 LFBC 191300Z AUTO 22010KT 9999 NSC 28/14 Q1009
LFLX - Chateauroux/France
Distance de la station: NE 174km
Mise à jour: 19/09/2014 15:30
nuageux
nuageux
 Wind from ESE
Vent: ESE 20 km/h
Température: 21°C
Point de Rosée: 17°C
Humidité: 78%
Baromètre: 1012 hPa
Nuages: nuageux
Visibilité: 10 km
Nuages details: Quelques Nuages 792 m
nuageux 884 m
2014/09/19 13:30 LFLX 191330Z 11011KT 9999 FEW026CB BKN029 21/17 Q1012 RETS NOSIG
 
LFBA - Agen/France
Distance de la station: SSE 179km
Mise à jour: 19/09/2014 15:30
partiellement nuageux
partiellement nuageux
 Wind from variable
Vent: variable 2 km/h
Température: 29°C
Heat Index: 28°C
Point de Rosée: 14°C
Humidité: 40%
Baromètre: 1009 hPa
Nuages: partiellement nuageux
Visibilité: 10 km
2014/09/19 13:30 LFBA 191330Z AUTO VRB01KT 9999 NSC 29/14 Q1009